M I D A S
Marine Information and Data Acquisition System
Tripno 1993 of the Zeeleeuw from 2010-07-06 06:52:40 to 2010-07-06 13:51:27
Back to CruiseResearch ActivitiesStationsMapUnderway DataData graphs

EquipmentUnitsComment
TimeDGPSUTC
LatitudeDGPSDM.mWGS84
LongitudeDGPSDM.mWGS84
HeadingGyrodeg 
SOGDGPSknotsSpeed over ground
COGDGPSdegCourse over ground
DepthEcho soundermeters200 kHz
Missing or incorrect values are displayed as -999
Navigation data collected by the RV Zeeleeuw from 2010-07-06 06:44:44 to 2010-07-06 13:54:39
                                                                                    Next 1000 lines
Time Latitude Longitude Heading SOG COG Depth
2010-07-06 06:44:54 51°13.662 2°55.957 116 0.8 280 8.2
2010-07-06 06:44:59 51°13.663 2°55.955 115.6 1 288 8.2
2010-07-06 06:45:04 51°13.663 2°55.953 115.3 1.2 286 8.4
2010-07-06 06:45:09 51°13.664 2°55.95 115.3 1.4 291 8.4
2010-07-06 06:45:14 51°13.665 2°55.946 115.5 1.6 290 8.5
2010-07-06 06:45:19 51°13.666 2°55.943 116.1 1.8 293 -999
2010-07-06 06:45:25 51°13.667 2°55.938 116.6 2 293 -999
2010-07-06 06:45:31 51°13.669 2°55.932 117.2 2.2 295 -999
2010-07-06 06:45:37 51°13.67 2°55.926 117.7 2.4 294 -999
2010-07-06 06:45:42 51°13.672 2°55.921 118.1 2.6 296 9.3
2010-07-06 06:45:47 51°13.674 2°55.916 118.4 2.8 294 -999
2010-07-06 06:45:52 51°13.675 2°55.91 118.4 3.1 295 -999
2010-07-06 06:45:58 51°13.678 2°55.902 117.9 3.3 295 -999
2010-07-06 06:46:03 51°13.68 2°55.895 117.8 3.4 295 -999
2010-07-06 06:46:08 51°13.682 2°55.887 118.3 3.6 295 -999
2010-07-06 06:46:13 51°13.684 2°55.88 118.7 3.7 296 -999
2010-07-06 06:46:18 51°13.687 2°55.872 119.4 3.9 296 -999
2010-07-06 06:46:22 51°13.689 2°55.866 120.3 4 297 -999
2010-07-06 06:46:28 51°13.692 2°55.856 121.4 4.1 298 -999
2010-07-06 06:46:33 51°13.695 2°55.848 123.1 4.3 300 -999
2010-07-06 06:46:38 51°13.698 2°55.84 124.5 4.3 301 -999
2010-07-06 06:46:42 51°13.701 2°55.834 126.1 4.3 304 -999
2010-07-06 06:46:48 51°13.705 2°55.824 127.6 4.4 304 -999
2010-07-06 06:46:53 51°13.708 2°55.816 129 4.4 307 -999
2010-07-06 06:46:58 51°13.712 2°55.809 130.7 4.4 308 -999
2010-07-06 06:47:02 51°13.715 2°55.803 132.1 4.4 310 -999
2010-07-06 06:47:07 51°13.719 2°55.795 133.4 4.4 311 -999
2010-07-06 06:47:13 51°13.724 2°55.787 134.6 4.5 313 -999
2010-07-06 06:47:18 51°13.729 2°55.78 135.8 4.5 314 -999
2010-07-06 06:47:22 51°13.732 2°55.774 136.9 4.4 315 -999
2010-07-06 06:47:28 51°13.737 2°55.767 138 4.1 317 -999
2010-07-06 06:47:33 51°13.74 2°55.762 139.4 3.4 317 -999
2010-07-06 06:47:38 51°13.743 2°55.758 140.3 2.6 315 -999
2010-07-06 06:47:42 51°13.744 2°55.756 139.7 1.8 314 -999
2010-07-06 06:47:48 51°13.747 2°55.752 137.6 2 317 -999
2010-07-06 06:47:53 51°13.749 2°55.748 136.7 2.5 313 12.5
2010-07-06 06:47:57 51°13.751 2°55.745 136.5 2.8 316 11.6
2010-07-06 06:48:02 51°13.754 2°55.74 136.9 3 314 11.4
2010-07-06 06:48:07 51°13.757 2°55.735 137.6 3.2 316 -999
2010-07-06 06:48:13 51°13.761 2°55.728 137.8 3.4 314 -999
2010-07-06 06:48:18 51°13.765 2°55.723 137.7 3.7 316 -999
2010-07-06 06:48:22 51°13.768 2°55.718 138 3.9 315 -999
2010-07-06 06:48:28 51°13.773 2°55.71 138.4 4.1 316 -999
2010-07-06 06:48:33 51°13.777 2°55.704 138.9 4.3 317 -999
2010-07-06 06:48:38 51°13.782 2°55.697 139.4 4.5 317 -999
2010-07-06 06:48:42 51°13.786 2°55.691 140.2 4.6 318 -999
2010-07-06 06:48:48 51°13.792 2°55.683 141.6 4.6 320 -999
2010-07-06 06:48:53 51°13.797 2°55.677 143.6 4.6 322 -999
2010-07-06 06:48:58 51°13.802 2°55.671 145.9 4.6 324 -999
2010-07-06 06:49:02 51°13.806 2°55.667 148.7 4.6 327 -999
2010-07-06 06:49:08 51°13.813 2°55.661 151.7 4.6 330 -999
2010-07-06 06:49:13 51°13.819 2°55.656 154.9 4.6 334 -999
2010-07-06 06:49:18 51°13.825 2°55.653 158.3 4.7 337 -999
2010-07-06 06:49:22 51°13.83 2°55.65 161.5 4.7 340 -999
2010-07-06 06:49:28 51°13.837 2°55.646 164.6 4.7 344 -999
2010-07-06 06:49:33 51°13.843 2°55.644 167.5 4.7 346 -999
2010-07-06 06:49:38 51°13.85 2°55.642 170.4 4.7 350 -999
2010-07-06 06:49:42 51°13.855 2°55.641 173.2 4.7 352 -999
2010-07-06 06:49:48 51°13.863 2°55.64 176 4.7 354 -999
2010-07-06 06:49:53 51°13.869 2°55.64 178.6 4.7 358 -999
2010-07-06 06:49:57 51°13.875 2°55.64 181.4 4.7 -999 -999
2010-07-06 06:50:02 51°13.881 2°55.64 184.2 4.8 3 -999
2010-07-06 06:50:08 51°13.889 2°55.642 187.1 4.8 6 -999
2010-07-06 06:50:13 51°13.896 2°55.643 190.1 4.8 9 -999
2010-07-06 06:50:18 51°13.902 2°55.646 193.1 4.8 12 -999
2010-07-06 06:50:22 51°13.907 2°55.648 196.1 4.8 16 -999
2010-07-06 06:50:28 51°13.914 2°55.652 199 4.6 19 -999
2010-07-06 06:50:33 51°13.92 2°55.655 201.9 4.4 19 -999
2010-07-06 06:50:37 51°13.924 2°55.658 203.7 3.9 23 -999
2010-07-06 06:50:42 51°13.929 2°55.661 205.4 3.5 24 -999
2010-07-06 06:50:47 51°13.933 2°55.664 206.9 3.1 24 13.8
2010-07-06 06:50:53 51°13.937 2°55.667 208.7 2.8 30 13.4
2010-07-06 06:50:57 51°13.939 2°55.669 210.4 2.3 27 13.6
2010-07-06 06:51:02 51°13.941 2°55.671 212.1 1.9 31 14.2
2010-07-06 06:51:07 51°13.943 2°55.673 214 1.3 28 14.2
2010-07-06 06:51:13 51°13.943 2°55.673 216.8 0.6 32 -999
2010-07-06 06:51:18 51°13.944 2°55.673 220.2 0.2 324 14.6
2010-07-06 06:51:22 51°13.943 2°55.672 225.3 0.6 246 -999
2010-07-06 06:51:27 51°13.943 2°55.669 230.7 1.3 246 -999
2010-07-06 06:51:33 51°13.941 2°55.665 238.3 1.6 248 -999
2010-07-06 06:51:38 51°13.941 2°55.66 245.3 2.1 252 14.3
2010-07-06 06:51:42 51°13.94 2°55.656 249.5 2.4 258 14.2
2010-07-06 06:51:47 51°13.94 2°55.65 255 2.7 264 14.1
2010-07-06 06:51:52 51°13.94 2°55.643 260.8 3.1 271 13.7
2010-07-06 06:51:57 51°13.941 2°55.635 267.9 3.3 277 13.7
2010-07-06 06:52:02 51°13.942 2°55.628 276.6 3.5 284 14
2010-07-06 06:52:06 51°13.944 2°55.622 282.3 3.8 290 14.3
2010-07-06 06:52:11 51°13.946 2°55.614 289.4 3.9 296 14.4
2010-07-06 06:52:16 51°13.949 2°55.606 298 4.2 303 14
2010-07-06 06:52:21 51°13.953 2°55.598 305.1 4.5 310 13.7
2010-07-06 06:52:26 51°13.958 2°55.59 311 4.8 312 13.6
2010-07-06 06:52:30 51°13.962 2°55.584 315 5.2 314 12.8
2010-07-06 06:52:35 51°13.968 2°55.575 316.7 5.6 316 13
2010-07-06 06:52:40 51°13.974 2°55.566 318.7 6.1 318 13
2010-07-06 06:52:45 51°13.981 2°55.557 320.8 6.5 322 13.1
2010-07-06 06:52:50 51°13.989 2°55.549 323.3 6.8 323 13.2
2010-07-06 06:52:54 51°13.995 2°55.542 325.6 7.1 326 13.1
2010-07-06 06:52:59 51°14.004 2°55.532 327.7 7.4 326 13.1
2010-07-06 06:53:05 51°14.014 2°55.521 328.6 7.6 328 13.2
2010-07-06 06:53:10 51°14.024 2°55.512 329.6 7.9 329 13.1
2010-07-06 06:53:14 51°14.031 2°55.505 330.6 8 329 12.9
2010-07-06 06:53:19 51°14.041 2°55.496 331.3 8.2 330 13.2
2010-07-06 06:53:24 51°14.051 2°55.486 332 8.3 330 13.3
2010-07-06 06:53:29 51°14.062 2°55.477 332.2 8.5 330 13.2
2010-07-06 06:53:34 51°14.072 2°55.468 332 8.6 331 13.2
2010-07-06 06:53:38 51°14.081 2°55.46 332.8 8.8 331 13.2
2010-07-06 06:53:44 51°14.094 2°55.449 333 9.1 331 13.1
2010-07-06 06:53:49 51°14.105 2°55.439 333 9.3 331 13.1
2010-07-06 06:53:54 51°14.117 2°55.429 333.6 9.4 333 13.1
2010-07-06 06:53:59 51°14.129 2°55.42 334 9.5 333 13.1
2010-07-06 06:54:04 51°14.14 2°55.41 334 9.6 332 13
2010-07-06 06:54:09 51°14.153 2°55.4 334.4 9.7 333 13.1
2010-07-06 06:54:14 51°14.165 2°55.39 335 9.8 333 13.4
2010-07-06 06:54:19 51°14.177 2°55.38 334.9 9.9 332 13
2010-07-06 06:54:24 51°14.189 2°55.371 334.7 9.9 333 13.1
2010-07-06 06:54:29 51°14.201 2°55.36 333.8 10 331 13.1
2010-07-06 06:54:34 51°14.213 2°55.349 333.2 10 331 13.3
2010-07-06 06:54:39 51°14.225 2°55.338 333.2 10.1 331 13
2010-07-06 06:54:44 51°14.238 2°55.328 333.2 10.1 331 12.6
2010-07-06 06:54:49 51°14.25 2°55.317 333.2 10.1 331 12.5
2010-07-06 06:54:54 51°14.262 2°55.306 333 10.1 331 12.5
2010-07-06 06:54:59 51°14.274 2°55.295 332.5 10.2 330 12.7
2010-07-06 06:55:04 51°14.287 2°55.283 331.8 10.2 330 12.9
2010-07-06 06:55:09 51°14.299 2°55.272 331.2 10.2 329 13.1
2010-07-06 06:55:14 51°14.311 2°55.26 331.3 10.3 330 12.9
2010-07-06 06:55:19 51°14.324 2°55.249 331.5 10.3 329 12.7
2010-07-06 06:55:24 51°14.336 2°55.237 331.7 10.4 330 13
2010-07-06 06:55:29 51°14.349 2°55.225 331.4 10.5 328 13.1
2010-07-06 06:55:34 51°14.361 2°55.213 330.9 10.5 329 12.5
2010-07-06 06:55:38 51°14.371 2°55.204 330.8 10.5 328 13
2010-07-06 06:55:43 51°14.384 2°55.192 331 10.5 330 13
2010-07-06 06:55:49 51°14.399 2°55.177 331.2 10.5 329 12.9
2010-07-06 06:55:54 51°14.411 2°55.165 330.5 10.5 329 12.9
2010-07-06 06:55:58 51°14.421 2°55.156 330.3 10.5 329 13
2010-07-06 06:56:04 51°14.436 2°55.141 329.9 10.6 329 12.8
2010-07-06 06:56:09 51°14.449 2°55.129 329.8 10.6 330 13.2
2010-07-06 06:56:14 51°14.462 2°55.117 330.5 10.7 330 12.5
2010-07-06 06:56:18 51°14.472 2°55.108 331.1 10.8 331 12.7
2010-07-06 06:56:24 51°14.488 2°55.094 331.7 10.8 331 13
2010-07-06 06:56:28 51°14.499 2°55.085 331.8 10.9 331 12.2
2010-07-06 06:56:34 51°14.514 2°55.071 331.8 10.9 331 13
2010-07-06 06:56:38 51°14.525 2°55.061 331.4 11 331 13.4
2010-07-06 06:56:44 51°14.541 2°55.047 331.1 11.1 332 13.5
2010-07-06 06:56:49 51°14.556 2°55.037 331.3 11.2 334 14
2010-07-06 06:56:54 51°14.57 2°55.026 331.8 11.5 334 14.4
2010-07-06 06:56:58 51°14.581 2°55.016 330.8 11.6 332 13.8
2010-07-06 06:57:03 51°14.596 2°55.004 329.1 11.7 331 13.6
2010-07-06 06:57:08 51°14.61 2°54.991 328 11.8 331 13.8
2010-07-06 06:57:14 51°14.627 2°54.975 326.6 11.9 328 13.8
2010-07-06 06:57:18 51°14.638 2°54.963 324.6 12 326 13.8
2010-07-06 06:57:24 51°14.655 2°54.945 322.7 12.1 325 13.6
2010-07-06 06:57:29 51°14.668 2°54.929 321.6 12.1 324 13.4
2010-07-06 06:57:34 51°14.682 2°54.913 320.4 12.1 323 13.4
2010-07-06 06:57:39 51°14.695 2°54.897 319.6 12.2 323 13.4
2010-07-06 06:57:44 51°14.709 2°54.88 319.4 12.2 323 13.5
2010-07-06 06:57:49 51°14.723 2°54.864 320.3 12.4 325 13.6
2010-07-06 06:57:54 51°14.737 2°54.847 320.9 12.6 323 13.6
2010-07-06 06:57:59 51°14.751 2°54.83 320.7 12.7 323 13.5
2010-07-06 06:58:03 51°14.763 2°54.816 320.2 12.9 323 13.4
2010-07-06 06:58:09 51°14.78 2°54.796 319.9 12.9 323 13.4
2010-07-06 06:58:14 51°14.794 2°54.778 319.7 13 322 13.7
2010-07-06 06:58:19 51°14.808 2°54.761 319.7 13.1 323 13.1
2010-07-06 06:58:24 51°14.823 2°54.743 319.8 13.1 323 13
2010-07-06 06:58:29 51°14.837 2°54.725 319.5 13.2 322 13.2
2010-07-06 06:58:34 51°14.852 2°54.707 319.5 13.3 323 13
2010-07-06 06:58:39 51°14.867 2°54.689 319.6 13.3 322 12.9
2010-07-06 06:58:44 51°14.881 2°54.672 319.6 13.2 323 13.4
2010-07-06 06:58:49 51°14.896 2°54.654 320 13.3 322 13
2010-07-06 06:58:54 51°14.911 2°54.636 319.9 13.3 323 13.2
2010-07-06 06:58:59 51°14.925 2°54.618 319.9 13.2 323 12.9
2010-07-06 06:59:04 51°14.94 2°54.601 319.7 13.3 323 12.8
2010-07-06 06:59:09 51°14.955 2°54.583 319.9 13.3 324 11.9
2010-07-06 06:59:14 51°14.969 2°54.566 320.2 13.2 324 11.9
2010-07-06 06:59:19 51°14.984 2°54.549 320.2 13.2 324 11.8
2010-07-06 06:59:24 51°14.999 2°54.531 320.3 13.2 324 11.6
2010-07-06 06:59:29 51°15.014 2°54.514 320.3 13.3 323 11.7
2010-07-06 06:59:34 51°15.029 2°54.496 320 13.3 322 11.7
2010-07-06 06:59:39 51°15.043 2°54.478 319.5 13.3 322 11.5
2010-07-06 06:59:44 51°15.057 2°54.459 319.4 13.3 321 11.8
2010-07-06 06:59:49 51°15.072 2°54.441 319.2 13.3 321 11.7
2010-07-06 06:59:54 51°15.086 2°54.422 319 13.3 321 11.7
2010-07-06 06:59:59 51°15.1 2°54.404 318.9 13.3 321 11.7
2010-07-06 07:00:03 51°15.112 2°54.389 319.4 13.4 322 11.7
2010-07-06 07:00:09 51°15.13 2°54.367 319.8 13.4 322 11.8
2010-07-06 07:00:14 51°15.145 2°54.351 321.1 13.4 325 11.9
2010-07-06 07:00:19 51°15.16 2°54.333 321.8 13.4 324 11.9
2010-07-06 07:00:24 51°15.176 2°54.318 323.1 13.4 328 12
2010-07-06 07:00:29 51°15.191 2°54.301 323.8 13.4 326 12.1
2010-07-06 07:00:34 51°15.207 2°54.286 324.5 13.5 328 12.1
2010-07-06 07:00:39 51°15.222 2°54.27 325 13.4 327 12
2010-07-06 07:00:44 51°15.238 2°54.254 325.5 13.4 328 11.9
2010-07-06 07:00:49 51°15.254 2°54.238 325.7 13.4 328 11.9
2010-07-06 07:00:54 51°15.27 2°54.223 325.8 13.4 328 12.1
2010-07-06 07:00:59 51°15.285 2°54.207 325.9 13.4 327 11.9
2010-07-06 07:01:04 51°15.301 2°54.191 325.6 13.4 328 11.9
2010-07-06 07:01:09 51°15.316 2°54.174 324.7 13.3 326 11.9
2010-07-06 07:01:14 51°15.331 2°54.158 324.2 13.3 327 11.9
2010-07-06 07:01:19 51°15.346 2°54.141 323.3 13.3 325 11.9
2010-07-06 07:01:24 51°15.362 2°54.125 323.2 13.3 326 12.1
2010-07-06 07:01:29 51°15.377 2°54.107 322.5 13.3 324 11.9
2010-07-06 07:01:34 51°15.392 2°54.091 322.3 13.3 325 12.3
2010-07-06 07:01:39 51°15.407 2°54.073 322.2 13.3 324 12.1
2010-07-06 07:01:44 51°15.422 2°54.056 322.1 13.3 325 12.2
2010-07-06 07:01:49 51°15.437 2°54.039 322 13.3 324 12.3
2010-07-06 07:01:54 51°15.452 2°54.022 322 13.3 324 12.3
2010-07-06 07:01:59 51°15.467 2°54.004 321.7 13.3 323 12.4
2010-07-06 07:02:04 51°15.481 2°53.986 320.7 13.2 322 12.5
2010-07-06 07:02:09 51°15.495 2°53.968 320 13.2 321 12.5
2010-07-06 07:02:14 51°15.51 2°53.95 319.2 13.2 322 12.4
2010-07-06 07:02:19 51°15.524 2°53.931 318.9 13.2 321 12.5
2010-07-06 07:02:23 51°15.535 2°53.916 318.4 13.2 320 12.7
2010-07-06 07:02:29 51°15.552 2°53.894 318.2 13.2 320 12.7
2010-07-06 07:02:34 51°15.567 2°53.875 318 13.2 320 12.7
2010-07-06 07:02:39 51°15.581 2°53.856 317.9 13.2 320 12.8
2010-07-06 07:02:44 51°15.595 2°53.838 318.1 13.2 320 12.9
2010-07-06 07:02:49 51°15.609 2°53.819 318 13.2 320 12.9
2010-07-06 07:02:54 51°15.623 2°53.8 318 13.2 321 13
2010-07-06 07:02:59 51°15.637 2°53.781 318 13.2 321 13.1
2010-07-06 07:03:04 51°15.652 2°53.763 318.3 13.3 321 13.2
2010-07-06 07:03:09 51°15.666 2°53.745 318.4 13.2 321 13
2010-07-06 07:03:14 51°15.68 2°53.726 318.3 13.3 321 13.1
2010-07-06 07:03:19 51°15.694 2°53.708 318.1 13.2 321 13
2010-07-06 07:03:23 51°15.706 2°53.693 318.2 13.2 321 13.1
2010-07-06 07:03:29 51°15.723 2°53.671 318.3 13.2 321 13.2
2010-07-06 07:03:34 51°15.737 2°53.652 318 13.2 320 13.2
2010-07-06 07:03:39 51°15.751 2°53.634 317.7 13.2 321 13.4
2010-07-06 07:03:44 51°15.765 2°53.615 317.9 13.2 320 13.4
2010-07-06 07:03:49 51°15.779 2°53.597 317.9 13.2 320 13.4
2010-07-06 07:03:54 51°15.794 2°53.578 317.8 13.2 321 13.4
2010-07-06 07:03:59 51°15.808 2°53.56 317.9 13.2 321 13.4
2010-07-06 07:04:04 51°15.822 2°53.542 318.1 13.2 322 13.6
2010-07-06 07:04:09 51°15.837 2°53.523 318.2 13.2 321 13.6
2010-07-06 07:04:14 51°15.852 2°53.508 320.9 13.3 328 13.5
2010-07-06 07:04:19 51°15.867 2°53.491 323.1 13.2 326 13.5
2010-07-06 07:04:24 51°15.883 2°53.477 324.6 13.3 329 13.4
2010-07-06 07:04:29 51°15.899 2°53.462 326.2 13.3 330 13.6
2010-07-06 07:04:34 51°15.915 2°53.448 327.9 13.4 334 13.5
2010-07-06 07:04:39 51°15.932 2°53.435 330.3 13.4 334 13.6
2010-07-06 07:04:43 51°15.946 2°53.425 331.5 13.4 335 13.5
2010-07-06 07:04:49 51°15.966 2°53.411 333 13.4 336 13.5
2010-07-06 07:04:54 51°15.983 2°53.4 333.9 13.4 337 13.5
2010-07-06 07:04:59 51°16.001 2°53.389 335 13.5 339 13.7
2010-07-06 07:05:03 51°16.015 2°53.38 335.6 13.5 338 13.7
2010-07-06 07:05:09 51°16.036 2°53.367 336.5 13.6 340 13.6
2010-07-06 07:05:14 51°16.054 2°53.357 337 13.6 340 13.6
2010-07-06 07:05:19 51°16.071 2°53.348 337.5 13.6 341 13.8
2010-07-06 07:05:24 51°16.089 2°53.338 337.6 13.6 341 13.8
2010-07-06 07:05:29 51°16.107 2°53.328 337.5 13.6 340 13.8
2010-07-06 07:05:34 51°16.125 2°53.318 337.2 13.6 340 13.8
2010-07-06 07:05:39 51°16.142 2°53.308 337.3 13.6 341 13.6
2010-07-06 07:05:44 51°16.16 2°53.298 337.1 13.5 340 13.8
2010-07-06 07:05:49 51°16.178 2°53.288 336.9 13.6 340 13.8
2010-07-06 07:05:54 51°16.196 2°53.277 336.9 13.6 340 13.7
2010-07-06 07:05:59 51°16.213 2°53.267 336.8 13.6 340 13.7
2010-07-06 07:06:04 51°16.231 2°53.257 336.6 13.6 340 13.8
2010-07-06 07:06:09 51°16.248 2°53.246 336.1 13.5 339 13.9
2010-07-06 07:06:14 51°16.266 2°53.236 336.3 13.6 340 14
2010-07-06 07:06:19 51°16.284 2°53.225 336.3 13.6 339 13.9
2010-07-06 07:06:24 51°16.301 2°53.215 336.2 13.6 340 14
2010-07-06 07:06:29 51°16.319 2°53.205 336.4 13.5 339 14
2010-07-06 07:06:34 51°16.337 2°53.194 336.4 13.5 339 14
2010-07-06 07:06:39 51°16.354 2°53.184 336.4 13.5 339 13.9
2010-07-06 07:06:43 51°16.368 2°53.175 336.4 13.5 339 14
2010-07-06 07:06:49 51°16.389 2°53.163 336.4 13.5 339 14
2010-07-06 07:06:54 51°16.406 2°53.152 336.6 13.5 339 13.9
2010-07-06 07:06:59 51°16.424 2°53.142 336.2 13.5 339 14
2010-07-06 07:07:04 51°16.442 2°53.131 336.2 13.5 339 13.9
2010-07-06 07:07:09 51°16.459 2°53.121 336.4 13.4 339 13.9
2010-07-06 07:07:14 51°16.476 2°53.11 336.5 13.4 339 13.8
2010-07-06 07:07:19 51°16.494 2°53.099 336.2 13.5 339 13.8
2010-07-06 07:07:24 51°16.511 2°53.088 336.2 13.5 339 13.6
2010-07-06 07:07:29 51°16.529 2°53.077 336.2 13.5 339 13.7
2010-07-06 07:07:34 51°16.546 2°53.067 336.2 13.4 339 13.6
2010-07-06 07:07:39 51°16.563 2°53.055 336.1 13.4 339 13.6
2010-07-06 07:07:43 51°16.577 2°53.047 335.7 13.4 338 13.6
2010-07-06 07:07:49 51°16.598 2°53.034 335.6 13.4 339 13.4
2010-07-06 07:07:54 51°16.615 2°53.023 335.4 13.4 338 13.4
2010-07-06 07:07:59 51°16.632 2°53.012 335.7 13.4 339 13.4
2010-07-06 07:08:04 51°16.65 2°53.001 335.8 13.4 339 13.3
2010-07-06 07:08:09 51°16.667 2°52.99 336.1 13.4 339 13.3
2010-07-06 07:08:14 51°16.684 2°52.979 335.9 13.4 338 12.9
2010-07-06 07:08:19 51°16.702 2°52.969 335.8 13.4 339 13
2010-07-06 07:08:24 51°16.719 2°52.958 335.8 13.4 339 12.9
2010-07-06 07:08:29 51°16.737 2°52.947 335.8 13.4 339 12.9
2010-07-06 07:08:34 51°16.754 2°52.936 335.8 13.4 338 12.7
2010-07-06 07:08:39 51°16.771 2°52.925 335.6 13.4 338 12.3
2010-07-06 07:08:43 51°16.785 2°52.916 335.3 13.4 338 11.9
2010-07-06 07:08:49 51°16.805 2°52.903 335.3 13.4 338 11.7
2010-07-06 07:08:54 51°16.822 2°52.891 335.2 13.4 338 11.8
2010-07-06 07:08:59 51°16.84 2°52.88 335.3 13.4 338 11.4
2010-07-06 07:09:04 51°16.857 2°52.869 335.6 13.4 338 11.3
2010-07-06 07:09:09 51°16.874 2°52.858 335.6 13.4 338 11.2
2010-07-06 07:09:14 51°16.891 2°52.847 335.7 13.4 338 11.2
2010-07-06 07:09:19 51°16.908 2°52.836 335.8 13.4 338 11.4
2010-07-06 07:09:23 51°16.922 2°52.827 335.8 13.5 338 11.4
2010-07-06 07:09:29 51°16.943 2°52.813 336.1 13.5 338 11.4
2010-07-06 07:09:34 51°16.96 2°52.802 335.5 13.5 337 11.4
2010-07-06 07:09:39 51°16.978 2°52.791 335.5 13.5 338 11.7
2010-07-06 07:09:44 51°16.995 2°52.779 335.6 13.5 338 11.7
2010-07-06 07:09:49 51°17.013 2°52.768 335.6 13.6 338 11.7
2010-07-06 07:09:54 51°17.031 2°52.757 335.8 13.6 338 11.9
2010-07-06 07:09:59 51°17.048 2°52.745 336 13.6 338 12
2010-07-06 07:10:04 51°17.065 2°52.734 335.9 13.6 338 12.1
2010-07-06 07:10:09 51°17.083 2°52.722 335.8 13.6 338 12
2010-07-06 07:10:14 51°17.1 2°52.711 335.6 13.6 338 11.8
2010-07-06 07:10:19 51°17.118 2°52.7 335.4 13.6 339 11.7
2010-07-06 07:10:24 51°17.136 2°52.691 336.9 13.6 342 11.7
2010-07-06 07:10:29 51°17.154 2°52.683 340 13.6 346 11.8
2010-07-06 07:10:34 51°17.173 2°52.676 342.1 13.7 346 11.9
2010-07-06 07:10:39 51°17.191 2°52.67 344.5 13.8 349 11.7
2010-07-06 07:10:44 51°17.21 2°52.664 345.9 13.8 349 11.7
2010-07-06 07:10:49 51°17.229 2°52.659 347.5 13.8 351 11.9
2010-07-06 07:10:54 51°17.248 2°52.654 348.5 13.8 352 12
2010-07-06 07:10:59 51°17.267 2°52.65 349.5 13.8 352 11.8
2010-07-06 07:11:04 51°17.286 2°52.647 350.6 13.8 353 11.9
2010-07-06 07:11:09 51°17.305 2°52.643 350.9 13.8 353 12
2010-07-06 07:11:14 51°17.324 2°52.639 351.6 13.9 354 12.1
2010-07-06 07:11:19 51°17.343 2°52.636 352.1 13.9 353 11.9
2010-07-06 07:11:24 51°17.362 2°52.633 352.3 13.9 354 12.1
2010-07-06 07:11:29 51°17.382 2°52.629 352.4 13.8 354 12.2
2010-07-06 07:11:34 51°17.401 2°52.626 352.3 13.9 354 12.3
2010-07-06 07:11:39 51°17.42 2°52.622 352.1 13.9 353 12.2
2010-07-06 07:11:43 51°17.435 2°52.62 352 13.9 354 12.3
2010-07-06 07:11:49 51°17.458 2°52.616 352 13.9 353 12.3
2010-07-06 07:11:54 51°17.477 2°52.612 351.9 13.9 353 12.2
2010-07-06 07:11:59 51°17.496 2°52.608 352.2 13.9 354 12.3
2010-07-06 07:12:04 51°17.516 2°52.605 352.1 13.9 353 12.3
2010-07-06 07:12:09 51°17.535 2°52.601 351.8 13.9 353 12.3
2010-07-06 07:12:14 51°17.554 2°52.598 351.8 13.9 353 12.5
2010-07-06 07:12:19 51°17.573 2°52.594 351.9 13.9 353 12.3
2010-07-06 07:12:24 51°17.592 2°52.59 352.1 13.9 354 12.2
2010-07-06 07:12:29 51°17.611 2°52.587 352 13.8 353 12.4
2010-07-06 07:12:34 51°17.63 2°52.583 351.9 13.9 353 12.5
2010-07-06 07:12:39 51°17.649 2°52.579 351.6 13.8 352 12.5
2010-07-06 07:12:43 51°17.664 2°52.576 351.4 13.9 353 12.3
2010-07-06 07:12:49 51°17.687 2°52.571 351.6 13.8 353 12.3
2010-07-06 07:12:54 51°17.707 2°52.568 351.4 13.9 353 12.3
2010-07-06 07:12:59 51°17.726 2°52.563 351.4 13.9 352 12.3
2010-07-06 07:13:04 51°17.745 2°52.56 351 13.9 353 12.2
2010-07-06 07:13:09 51°17.764 2°52.556 351 13.9 352 12.3
2010-07-06 07:13:14 51°17.783 2°52.552 351 13.8 353 12.3
2010-07-06 07:13:19 51°17.802 2°52.548 351.2 13.8 352 12.2
2010-07-06 07:13:23 51°17.817 2°52.545 351.5 13.9 353 12.1
2010-07-06 07:13:29 51°17.84 2°52.54 351.4 13.9 352 12.6
2010-07-06 07:13:34 51°17.859 2°52.539 352.6 13.9 357 12.4
2010-07-06 07:13:39 51°17.879 2°52.537 354.9 13.9 357 12.5
2010-07-06 07:13:44 51°17.898 2°52.536 356.1 13.9 358 12.3
2010-07-06 07:13:49 51°17.917 2°52.537 357.8 13.9 1 12.5
2010-07-06 07:13:54 51°17.937 2°52.536 358.5 13.9 -999 12.8
2010-07-06 07:13:59 51°17.956 2°52.538 359.7 14 2 12.6
2010-07-06 07:14:03 51°17.971 2°52.537 0.1 13.9 -999 12.7
2010-07-06 07:14:09 51°17.994 2°52.539 0.8 14 3 12.6
2010-07-06 07:14:14 51°18.013 2°52.54 1.5 13.9 1 12.7
2010-07-06 07:14:19 51°18.033 2°52.541 1.1 13.9 3 12.5
2010-07-06 07:14:23 51°18.048 2°52.542 1.5 14 1 12.5
2010-07-06 07:14:27 51°18.064 2°52.543 1.5 14 3 12.7
2010-07-06 07:14:33 51°18.087 2°52.545 1.5 13.9 2 12.6
2010-07-06 07:14:39 51°18.11 2°52.546 1.5 13.9 3 12.8
2010-07-06 07:14:43 51°18.126 2°52.547 1.5 14 2 12.7
2010-07-06 07:14:48 51°18.145 2°52.548 1.5 14 2 12.9
2010-07-06 07:14:54 51°18.168 2°52.55 1.5 13.9 2 12.6
2010-07-06 07:14:59 51°18.188 2°52.551 1.4 13.9 3 12.9
2010-07-06 07:15:03 51°18.203 2°52.552 1.5 13.9 1 12.9
2010-07-06 07:15:08 51°18.222 2°52.553 1.3 13.9 3 12.8
2010-07-06 07:15:13 51°18.242 2°52.554 1.1 13.9 1 12.8
2010-07-06 07:15:19 51°18.265 2°52.556 1.1 13.9 3 12.9
2010-07-06 07:15:24 51°18.284 2°52.556 1.3 13.9 1 13
2010-07-06 07:15:29 51°18.303 2°52.557 1.1 13.9 2 13.1
2010-07-06 07:15:34 51°18.323 2°52.559 1.1 13.9 2 12.8
2010-07-06 07:15:39 51°18.342 2°52.56 1.5 13.9 2 12.9
2010-07-06 07:15:44 51°18.361 2°52.561 1.3 13.9 2 13.2
2010-07-06 07:15:49 51°18.38 2°52.562 1.4 13.9 2 13
2010-07-06 07:15:54 51°18.4 2°52.563 1.3 13.9 3 13.1
2010-07-06 07:15:59 51°18.419 2°52.564 1.3 13.9 1 13.2
2010-07-06 07:16:04 51°18.438 2°52.566 1.1 13.9 2 13.2
2010-07-06 07:16:09 51°18.457 2°52.566 1.3 13.9 2 13.2
2010-07-06 07:16:14 51°18.477 2°52.567 1.2 13.9 1 13.2
2010-07-06 07:16:19 51°18.496 2°52.568 0.7 13.9 2 13.3
2010-07-06 07:16:24 51°18.515 2°52.569 1.2 13.9 2 13.3
2010-07-06 07:16:29 51°18.534 2°52.571 0.8 13.9 2 13.4
2010-07-06 07:16:34 51°18.554 2°52.571 1.1 13.9 -999 13.4
2010-07-06 07:16:39 51°18.573 2°52.572 0.4 14 3 13.6
2010-07-06 07:16:44 51°18.592 2°52.573 0.9 13.9 1 13.6
2010-07-06 07:16:49 51°18.612 2°52.574 0.3 14 1 13.5
2010-07-06 07:16:54 51°18.631 2°52.574 0.5 13.9 2 13.5
2010-07-06 07:16:59 51°18.65 2°52.575 0.7 14 1 13.6
2010-07-06 07:17:04 51°18.67 2°52.576 0.4 13.9 2 13.8
2010-07-06 07:17:09 51°18.689 2°52.577 0.8 13.9 2 13.5
2010-07-06 07:17:14 51°18.708 2°52.578 0.8 13.9 1 13.6
2010-07-06 07:17:19 51°18.727 2°52.579 0.8 13.9 2 13.8
2010-07-06 07:17:24 51°18.747 2°52.58 0.8 13.9 2 13.8
2010-07-06 07:17:29 51°18.766 2°52.581 1.1 13.9 2 13.8
2010-07-06 07:17:34 51°18.785 2°52.582 0.7 13.9 2 13.8
2010-07-06 07:17:39 51°18.805 2°52.582 0.7 13.9 2 14.1
2010-07-06 07:17:44 51°18.824 2°52.583 0.1 13.9 -999 14.1
2010-07-06 07:17:49 51°18.843 2°52.584 0.4 14 2 14.2
2010-07-06 07:17:54 51°18.863 2°52.584 0.4 14 1 14.3
2010-07-06 07:17:59 51°18.882 2°52.585 0.7 13.9 2 14.2
2010-07-06 07:18:04 51°18.902 2°52.586 0.5 13.9 1 14.4
2010-07-06 07:18:09 51°18.921 2°52.587 0.3 13.9 2 14.3
2010-07-06 07:18:14 51°18.941 2°52.587 0.5 14 1 14.5
2010-07-06 07:18:19 51°18.96 2°52.588 0.3 14 1 14.6
2010-07-06 07:18:24 51°18.979 2°52.589 0.3 14 1 14.6
2010-07-06 07:18:29 51°18.998 2°52.589 0.1 14 1 14.7
2010-07-06 07:18:34 51°19.018 2°52.59 0.4 14 1 15
2010-07-06 07:18:39 51°19.037 2°52.591 0.7 13.9 1 14.9
2010-07-06 07:18:44 51°19.056 2°52.591 0.6 13.9 1 15.1
2010-07-06 07:18:49 51°19.076 2°52.592 0.8 14 2 15.1
2010-07-06 07:18:54 51°19.095 2°52.593 0.8 14 1 15.2
2010-07-06 07:18:59 51°19.115 2°52.593 0.5 14 1 15.3
2010-07-06 07:19:04 51°19.134 2°52.594 0.6 14 1 15.3
2010-07-06 07:19:09 51°19.154 2°52.595 0.5 14 2 15.6
2010-07-06 07:19:14 51°19.173 2°52.596 0.5 14 1 15.5
2010-07-06 07:19:19 51°19.193 2°52.597 0.4 14.1 2 15.7
2010-07-06 07:19:24 51°19.212 2°52.599 1.5 14.1 4 15.8
2010-07-06 07:19:29 51°19.232 2°52.601 2.7 14.1 4 15.8
2010-07-06 07:19:34 51°19.251 2°52.605 3.5 14.2 6 15.9
2010-07-06 07:19:39 51°19.271 2°52.607 4.3 14.2 5 16
2010-07-06 07:19:44 51°19.29 2°52.611 4.6 14.2 6 16.2
2010-07-06 07:19:49 51°19.31 2°52.614 5.2 14.2 6 16.1
2010-07-06 07:19:54 51°19.33 2°52.618 5.2 14.2 6 16.2
2010-07-06 07:19:59 51°19.349 2°52.622 5.9 14.2 7 16.2
2010-07-06 07:20:04 51°19.369 2°52.626 6 14.2 7 16.4
2010-07-06 07:20:09 51°19.389 2°52.63 5.9 14.2 7 16.4
2010-07-06 07:20:14 51°19.408 2°52.634 6.1 14.2 7 16.4
2010-07-06 07:20:19 51°19.428 2°52.638 5.8 14.3 7 16.6
2010-07-06 07:20:24 51°19.447 2°52.641 6 14.3 7 16.6
2010-07-06 07:20:28 51°19.463 2°52.644 5.9 14.3 7 16.7
2010-07-06 07:20:34 51°19.487 2°52.649 5.7 14.3 7 16.8
2010-07-06 07:20:39 51°19.506 2°52.654 5.9 14.3 7 16.9
2010-07-06 07:20:44 51°19.526 2°52.658 6 14.3 8 17
2010-07-06 07:20:49 51°19.546 2°52.662 5.8 14.3 7 17
2010-07-06 07:20:54 51°19.565 2°52.666 6 14.3 7 17.2
2010-07-06 07:20:59 51°19.585 2°52.67 5.8 14.3 7 17.1
2010-07-06 07:21:04 51°19.605 2°52.674 5.9 14.3 7 17.1
2010-07-06 07:21:08 51°19.62 2°52.678 5.9 14.3 8 17.3
2010-07-06 07:21:14 51°19.644 2°52.682 5.9 14.3 7 17.3
2010-07-06 07:21:19 51°19.664 2°52.686 5.8 14.3 8 17.3
2010-07-06 07:21:24 51°19.683 2°52.69 5.5 14.3 7 17.3
2010-07-06 07:21:29 51°19.703 2°52.694 5.5 14.4 8 17.5
2010-07-06 07:21:34 51°19.723 2°52.697 5.3 14.3 7 17.4
2010-07-06 07:21:39 51°19.743 2°52.702 5.8 14.3 8 17.5
2010-07-06 07:21:44 51°19.763 2°52.706 5.9 14.3 7 17.6
2010-07-06 07:21:49 51°19.782 2°52.71 6 14.4 7 17.7
2010-07-06 07:21:54 51°19.802 2°52.713 5.6 14.3 7 17.7
2010-07-06 07:21:59 51°19.822 2°52.717 5.5 14.3 6 17.9
2010-07-06 07:22:04 51°19.842 2°52.721 5.7 14.3 8 17.9
2010-07-06 07:22:09 51°19.861 2°52.725 5.8 14.3 6 17.8
2010-07-06 07:22:14 51°19.881 2°52.729 5.8 14.3 6 17.9
2010-07-06 07:22:19 51°19.901 2°52.732 5.2 14.3 7 17.9
2010-07-06 07:22:24 51°19.921 2°52.736 5.8 14.3 7 18.1
2010-07-06 07:22:29 51°19.941 2°52.74 5.6 14.3 6 17.8
2010-07-06 07:22:34 51°19.96 2°52.744 5.1 14.3 7 18
2010-07-06 07:22:39 51°19.98 2°52.747 5.3 14.3 7 18.1
2010-07-06 07:22:44 51°20 2°52.751 5.2 14.2 7 17.9
2010-07-06 07:22:49 51°20.02 2°52.755 5.7 14.3 7 18.3
2010-07-06 07:22:54 51°20.039 2°52.758 5.5 14.2 6 18.1
2010-07-06 07:22:59 51°20.059 2°52.762 5.6 14.2 7 18
2010-07-06 07:23:04 51°20.079 2°52.766 5.6 14.2 7 18.2
2010-07-06 07:23:09 51°20.098 2°52.77 5.5 14.2 7 18.1
2010-07-06 07:23:14 51°20.118 2°52.773 5.2 14.2 7 18.2
2010-07-06 07:23:19 51°20.137 2°52.777 5.2 14.2 7 18
2010-07-06 07:23:24 51°20.157 2°52.78 5.2 14.2 6 18.3
2010-07-06 07:23:29 51°20.176 2°52.784 5.4 14.2 7 18.1
2010-07-06 07:23:34 51°20.196 2°52.789 5.5 14.2 7 18.2
2010-07-06 07:23:39 51°20.215 2°52.793 5.9 14.2 9 18.1
2010-07-06 07:23:44 51°20.234 2°52.798 7.3 14.2 9 18.1
2010-07-06 07:23:49 51°20.254 2°52.804 8.1 14.2 10 18.3
2010-07-06 07:23:54 51°20.273 2°52.809 9 14.3 11 18.3
2010-07-06 07:23:59 51°20.292 2°52.815 9.4 14.2 10 18.1
2010-07-06 07:24:04 51°20.311 2°52.821 10.2 14.2 12 18.3
2010-07-06 07:24:08 51°20.327 2°52.826 10.6 14.2 11 18.1
2010-07-06 07:24:14 51°20.35 2°52.834 11.2 14.2 12 18.1
2010-07-06 07:24:19 51°20.369 2°52.841 10.7 14.2 12 18.4
2010-07-06 07:24:24 51°20.388 2°52.848 11.1 14.2 13 18.3
2010-07-06 07:24:29 51°20.408 2°52.854 11.2 14.2 11 18.2
2010-07-06 07:24:34 51°20.427 2°52.86 10.9 14.2 12 18.2
2010-07-06 07:24:39 51°20.446 2°52.867 10.9 14.2 13 18.1
2010-07-06 07:24:44 51°20.466 2°52.874 11.4 14.2 12 18.3
2010-07-06 07:24:49 51°20.485 2°52.88 10.7 14.2 11 18.1
2010-07-06 07:24:54 51°20.504 2°52.886 11 14.2 12 18.1
2010-07-06 07:24:59 51°20.523 2°52.892 10.8 14.2 11 18.2
2010-07-06 07:25:04 51°20.543 2°52.898 10.7 14.1 11 18.1
2010-07-06 07:25:09 51°20.562 2°52.905 10.4 14.2 12 18
2010-07-06 07:25:14 51°20.581 2°52.911 10.7 14.1 11 18.2
2010-07-06 07:25:19 51°20.6 2°52.917 10.6 14.1 11 18.1
2010-07-06 07:25:24 51°20.62 2°52.923 10.7 14.1 12 18.3
2010-07-06 07:25:28 51°20.635 2°52.928 10.7 14.2 11 18.2
2010-07-06 07:25:34 51°20.658 2°52.935 10.5 14.2 11 18.1
2010-07-06 07:25:39 51°20.677 2°52.941 10.6 14.1 11 18
2010-07-06 07:25:44 51°20.696 2°52.947 10.6 14.1 11 18.1
2010-07-06 07:25:49 51°20.716 2°52.953 10.3 14.1 11 18
2010-07-06 07:25:54 51°20.735 2°52.959 10.3 14.1 12 18.1
2010-07-06 07:25:59 51°20.754 2°52.965 10.6 14.1 11 18.1
2010-07-06 07:26:04 51°20.773 2°52.971 10.6 14.1 11 17.9
2010-07-06 07:26:09 51°20.792 2°52.977 10.7 14.1 11 17.8
2010-07-06 07:26:14 51°20.811 2°52.983 10.5 14.1 11 17.9
2010-07-06 07:26:19 51°20.831 2°52.989 10.2 14.1 11 17.8
2010-07-06 07:26:24 51°20.85 2°52.995 10.7 14.1 11 17.8
2010-07-06 07:26:29 51°20.869 2°53.001 10.7 14.1 11 17.9
2010-07-06 07:26:34 51°20.888 2°53.007 10.5 14.1 11 17.9
2010-07-06 07:26:39 51°20.908 2°53.013 10.7 14.1 10 17.8
2010-07-06 07:26:44 51°20.927 2°53.019 10.2 14.1 11 17.8
2010-07-06 07:26:49 51°20.946 2°53.025 10.6 14 11 17.9
2010-07-06 07:26:54 51°20.965 2°53.031 10.6 14.1 11 17.8
2010-07-06 07:26:59 51°20.985 2°53.036 10.9 14.1 10 17.7
2010-07-06 07:27:04 51°21.004 2°53.042 10.3 14.1 11 17.5
2010-07-06 07:27:09 51°21.023 2°53.048 10.5 14.1 11 17.4
2010-07-06 07:27:14 51°21.042 2°53.054 10.3 14.1 11 17.2
2010-07-06 07:27:19 51°21.061 2°53.059 10.3 14.1 10 17.2
2010-07-06 07:27:24 51°21.08 2°53.066 10.6 14.1 11 17.2
2010-07-06 07:27:29 51°21.1 2°53.071 10.6 14.1 10 17.1
2010-07-06 07:27:34 51°21.119 2°53.077 10.5 14.1 11 17
2010-07-06 07:27:39 51°21.138 2°53.082 10.3 14 10 16.9
2010-07-06 07:27:44 51°21.157 2°53.089 10.3 14.1 12 16.9
2010-07-06 07:27:49 51°21.177 2°53.094 10.7 14.1 10 16.8
2010-07-06 07:27:54 51°21.196 2°53.1 10.3 14.1 10 16.8
2010-07-06 07:27:59 51°21.215 2°53.106 10.6 14 11 16.8
2010-07-06 07:28:04 51°21.234 2°53.111 10.5 14 10 16.8
2010-07-06 07:28:08 51°21.249 2°53.116 10.3 14.1 11 16.8
2010-07-06 07:28:14 51°21.272 2°53.122 10.1 14.1 10 17.1
2010-07-06 07:28:19 51°21.291 2°53.127 10.5 14 10 17.3
2010-07-06 07:28:24 51°21.311 2°53.133 10.3 14 10 17.3
2010-07-06 07:28:29 51°21.33 2°53.139 10.3 14.1 11 17.4
2010-07-06 07:28:34 51°21.349 2°53.145 10.4 14 10 17.5
2010-07-06 07:28:39 51°21.369 2°53.151 10.6 14.1 11 17.3
2010-07-06 07:28:44 51°21.388 2°53.157 10.7 14.1 11 17.5
2010-07-06 07:28:48 51°21.403 2°53.161 10.5 14.1 11 17.6
2010-07-06 07:28:54 51°21.426 2°53.168 10.5 14.1 10 17.6
2010-07-06 07:28:59 51°21.446 2°53.174 10.5 14.1 11 17.7
2010-07-06 07:29:04 51°21.465 2°53.18 10.5 14.1 10 17.9
2010-07-06 07:29:08 51°21.48 2°53.184 10.6 14.1 11 18
2010-07-06 07:29:14 51°21.503 2°53.191 10.4 14.1 10 18.1
2010-07-06 07:29:18 51°21.519 2°53.195 10.1 14.1 11 18.1
2010-07-06 07:29:24 51°21.542 2°53.202 10.2 14.1 10 18.4
2010-07-06 07:29:28 51°21.557 2°53.207 10.4 14.1 11 18.6
2010-07-06 07:29:33 51°21.576 2°53.213 10.6 14.1 11 18.8
2010-07-06 07:29:39 51°21.599 2°53.219 10.5 14.1 10 19
2010-07-06 07:29:44 51°21.619 2°53.225 10.3 14.1 11 19.1
2010-07-06 07:29:49 51°21.638 2°53.231 10.2 14.1 11 19.2
2010-07-06 07:29:54 51°21.657 2°53.238 11.3 14.1 13 19.4
2010-07-06 07:29:59 51°21.676 2°53.245 12.4 14.2 13 19.4
2010-07-06 07:30:04 51°21.695 2°53.252 13 14.1 13 19.6
2010-07-06 07:30:09 51°21.714 2°53.261 14.2 14.1 16 19.7
2010-07-06 07:30:14 51°21.733 2°53.268 14.3 14.1 14 19.8
2010-07-06 07:30:19 51°21.752 2°53.278 14.9 14.2 17 20.1
2010-07-06 07:30:24 51°21.771 2°53.285 15.6 14.1 13 20.3
2010-07-06 07:30:29 51°21.789 2°53.295 15.2 14.1 17 20.3
2010-07-06 07:30:34 51°21.809 2°53.302 15.9 14.1 15 20.6
2010-07-06 07:30:39 51°21.827 2°53.311 15.4 14.1 15 20.7
2010-07-06 07:30:44 51°21.846 2°53.32 16 14.1 15 20.9
2010-07-06 07:30:49 51°21.865 2°53.328 15.8 14.2 15 20.9
2010-07-06 07:30:53 51°21.88 2°53.335 15.8 14.2 17 21.4
2010-07-06 07:30:59 51°21.903 2°53.345 15.9 14.1 15 21.4
2010-07-06 07:31:04 51°21.922 2°53.354 15.9 14.1 17 21.6
2010-07-06 07:31:09 51°21.941 2°53.362 16.1 14.1 16 21.9
2010-07-06 07:31:14 51°21.959 2°53.371 15.7 14.1 16 22
2010-07-06 07:31:19 51°21.978 2°53.38 16.2 14.1 16 21.9
2010-07-06 07:31:24 51°21.997 2°53.388 16 14.1 16 21.9
2010-07-06 07:31:29 51°22.016 2°53.397 15.6 14.1 16 21.5
2010-07-06 07:31:34 51°22.035 2°53.405 15.8 14.1 16 21.8
2010-07-06 07:31:39 51°22.054 2°53.414 15.5 14.2 16 22
2010-07-06 07:31:44 51°22.073 2°53.423 15.9 14.1 16 22.1
2010-07-06 07:31:49 51°22.091 2°53.432 16 14.1 16 22.4
2010-07-06 07:31:54 51°22.11 2°53.44 16.1 14.2 16 22.7
2010-07-06 07:31:59 51°22.129 2°53.448 15.4 14.2 15 22.8
2010-07-06 07:32:04 51°22.148 2°53.457 15.3 14.1 15 22.8
2010-07-06 07:32:09 51°22.167 2°53.466 15.2 14.1 16 23.1
2010-07-06 07:32:13 51°22.182 2°53.472 15.4 14.1 15 22.9
2010-07-06 07:32:18 51°22.201 2°53.48 15.3 14.2 16 23.2
2010-07-06 07:32:23 51°22.22 2°53.488 15.2 14.1 16 23.5
2010-07-06 07:32:29 51°22.242 2°53.499 15.3 14.1 16 23.5
2010-07-06 07:32:34 51°22.261 2°53.507 15.3 14.1 15 23.6
2010-07-06 07:32:39 51°22.28 2°53.515 15.5 14.1 15 23.7
2010-07-06 07:32:44 51°22.299 2°53.521 12.7 14.1 11 23.9
2010-07-06 07:32:49 51°22.318 2°53.528 11.5 14 12 23.9
2010-07-06 07:32:54 51°22.338 2°53.532 10.2 14 9 23.9
2010-07-06 07:32:59 51°22.357 2°53.537 8.8 14 10 24
2010-07-06 07:33:04 51°22.376 2°53.541 7.4 14 7 24.2
2010-07-06 07:33:09 51°22.395 2°53.544 6.6 14 7 24
2010-07-06 07:33:14 51°22.415 2°53.549 6.2 14.1 8 24.1
2010-07-06 07:33:19 51°22.434 2°53.552 5 14 5 24.4
2010-07-06 07:33:24 51°22.453 2°53.555 5 14 6 24.6
2010-07-06 07:33:29 51°22.473 2°53.557 4.4 14 4 24.8
2010-07-06 07:33:34 51°22.492 2°53.56 3.8 14 6 24.7
2010-07-06 07:33:39 51°22.511 2°53.562 3.9 14 5 25
2010-07-06 07:33:44 51°22.531 2°53.565 3.7 14 5 24.8
2010-07-06 07:33:49 51°22.55 2°53.568 4.4 14.1 5 24.4
2010-07-06 07:33:54 51°22.57 2°53.572 3.9 14.1 6 24.4
2010-07-06 07:33:59 51°22.589 2°53.576 4.2 14 6 24.5
2010-07-06 07:34:04 51°22.608 2°53.579 4.4 14 6 24.6
2010-07-06 07:34:08 51°22.624 2°53.581 4.3 14 5 24.6
2010-07-06 07:34:14 51°22.647 2°53.584 4 14.1 6 24.6
2010-07-06 07:34:18 51°22.663 2°53.585 3 14 2 24.4
2010-07-06 07:34:23 51°22.682 2°53.587 2.2 14 3 24.6
2010-07-06 07:34:28 51°22.701 2°53.588 1.1 14 1 24
2010-07-06 07:34:34 51°22.725 2°53.588 359.5 13.9 359 24.1
2010-07-06 07:34:38 51°22.74 2°53.588 358.3 14 -999 23.1
2010-07-06 07:34:44 51°22.763 2°53.587 357.2 13.9 357 24.4
2010-07-06 07:34:49 51°22.783 2°53.586 356.3 13.9 358 24.7
2010-07-06 07:34:54 51°22.802 2°53.583 355.7 13.9 355 24.6
2010-07-06 07:34:59 51°22.821 2°53.582 355 13.9 357 24.2
2010-07-06 07:35:03 51°22.836 2°53.58 354.7 13.9 355 24.2
2010-07-06 07:35:09 51°22.86 2°53.578 353.9 13.9 355 23.6
2010-07-06 07:35:14 51°22.879 2°53.575 353.9 13.9 356 23.6
2010-07-06 07:35:19 51°22.898 2°53.572 353.5 13.9 355 23.3
2010-07-06 07:35:24 51°22.917 2°53.57 353.5 14 356 23.3
2010-07-06 07:35:29 51°22.936 2°53.568 353.7 13.9 356 23.2
2010-07-06 07:35:34 51°22.956 2°53.566 354.3 14 357 23
2010-07-06 07:35:39 51°22.975 2°53.563 354 14 356 23
2010-07-06 07:35:43 51°22.991 2°53.562 354 14 356 22.2
2010-07-06 07:35:48 51°23.01 2°53.559 354 14 356 21
2010-07-06 07:35:53 51°23.029 2°53.557 353.8 14 356 22.7
2010-07-06 07:35:58 51°23.049 2°53.555 353.8 14 356 22.6
2010-07-06 07:36:04 51°23.072 2°53.552 353.7 14 356 22.2
2010-07-06 07:36:09 51°23.092 2°53.55 354 14.1 356 20.9
2010-07-06 07:36:14 51°23.111 2°53.548 354 14 356 19
2010-07-06 07:36:19 51°23.131 2°53.547 354.2 14.1 357 20.6
2010-07-06 07:36:24 51°23.15 2°53.545 354.7 14.1 357 22.7
2010-07-06 07:36:28 51°23.166 2°53.544 354.5 14.1 357 22.6
2010-07-06 07:36:34 51°23.189 2°53.541 354.2 14.1 356 22.6
2010-07-06 07:36:39 51°23.208 2°53.54 354.2 14.1 357 22.3
2010-07-06 07:36:44 51°23.228 2°53.538 354.3 14.1 357 21.8
2010-07-06 07:36:49 51°23.247 2°53.536 354.3 14.1 356 21.6
2010-07-06 07:36:54 51°23.267 2°53.534 354 14.1 356 22.8
2010-07-06 07:36:59 51°23.287 2°53.532 354 14.1 357 22.9
2010-07-06 07:37:04 51°23.306 2°53.53 354.3 14.1 357 22.8
2010-07-06 07:37:09 51°23.326 2°53.528 354.3 14.2 356 22.8
2010-07-06 07:37:14 51°23.346 2°53.526 354.6 14.1 357 22.2
2010-07-06 07:37:19 51°23.365 2°53.525 354.6 14.1 357 22.4
2010-07-06 07:37:24 51°23.385 2°53.523 354.3 14.1 357 21.6
2010-07-06 07:37:28 51°23.4 2°53.521 354.5 14.1 357 21.6
2010-07-06 07:37:34 51°23.424 2°53.519 355.2 14.1 357 21.3
2010-07-06 07:37:39 51°23.443 2°53.517 354.7 14.1 357 20.9
2010-07-06 07:37:44 51°23.463 2°53.516 354.7 14.1 357 20.5
2010-07-06 07:37:49 51°23.482 2°53.514 354.8 14.2 357 20.3
2010-07-06 07:37:54 51°23.502 2°53.513 355 14.1 357 20.3
2010-07-06 07:37:59 51°23.522 2°53.511 355 14.2 357 20.4
2010-07-06 07:38:04 51°23.542 2°53.509 354.5 14.2 357 21.3
2010-07-06 07:38:09 51°23.561 2°53.507 354.7 14.2 357 22.5
2010-07-06 07:38:14 51°23.581 2°53.506 354.5 14.2 357 22.4
2010-07-06 07:38:19 51°23.6 2°53.504 354.7 14.2 357 22.3
2010-07-06 07:38:24 51°23.62 2°53.502 355 14.2 357 22.6
2010-07-06 07:38:29 51°23.64 2°53.501 354.9 14.2 357 22.7
2010-07-06 07:38:34 51°23.66 2°53.5 355 14.2 358 22.8
2010-07-06 07:38:39 51°23.68 2°53.498 355.3 14.2 357 22.7
2010-07-06 07:38:44 51°23.7 2°53.497 355.5 14.2 358 22.9
2010-07-06 07:38:48 51°23.715 2°53.495 354.8 14.3 357 22.9
2010-07-06 07:38:54 51°23.739 2°53.493 355.6 14.3 357 22.5
2010-07-06 07:38:59 51°23.758 2°53.491 355 14.2 357 22.8
2010-07-06 07:39:04 51°23.778 2°53.49 355.4 14.3 359 22.5
2010-07-06 07:39:09 51°23.798 2°53.488 355.2 14.2 356 22.6
2010-07-06 07:39:14 51°23.817 2°53.487 355.3 14.3 357 22.8
2010-07-06 07:39:19 51°23.837 2°53.485 355.1 14.2 357 22.8
2010-07-06 07:39:24 51°23.856 2°53.484 355.2 14.2 357 22.9
2010-07-06 07:39:29 51°23.877 2°53.483 355.1 14.3 358 22.8
2010-07-06 07:39:34 51°23.897 2°53.481 355.4 14.3 357 22.8
2010-07-06 07:39:39 51°23.917 2°53.479 355 14.3 357 22.6
2010-07-06 07:39:44 51°23.937 2°53.478 354.9 14.3 357 23
2010-07-06 07:39:49 51°23.956 2°53.476 354.8 14.3 357 21.4
2010-07-06 07:39:54 51°23.976 2°53.474 355 14.3 357 22.8
2010-07-06 07:39:59 51°23.996 2°53.471 355 14.3 356 22.8
2010-07-06 07:40:04 51°24.016 2°53.47 354.7 14.4 358 22.8
2010-07-06 07:40:09 51°24.035 2°53.467 354.8 14.3 355 22.6
2010-07-06 07:40:14 51°24.055 2°53.467 355.2 14.4 358 22.4
2010-07-06 07:40:19 51°24.075 2°53.464 354.7 14.3 356 22.3
2010-07-06 07:40:24 51°24.095 2°53.463 354.9 14.4 358 21.6
2010-07-06 07:40:29 51°24.115 2°53.461 355.4 14.3 356 21.5
2010-07-06 07:40:34 51°24.135 2°53.459 354.9 14.3 357 20.9
2010-07-06 07:40:39 51°24.154 2°53.457 355.4 14.3 357 19.7
2010-07-06 07:40:44 51°24.173 2°53.455 355.4 14.3 357 20.3
2010-07-06 07:40:49 51°24.194 2°53.453 355 14.4 357 19.8
2010-07-06 07:40:53 51°24.21 2°53.452 355.2 14.3 356 20
2010-07-06 07:40:59 51°24.234 2°53.45 355 14.3 357 19
2010-07-06 07:41:04 51°24.254 2°53.448 355.3 14.3 356 19.1
2010-07-06 07:41:09 51°24.274 2°53.447 355.2 14.4 358 19.4
2010-07-06 07:41:14 51°24.294 2°53.444 355.3 14.3 355 18.6
2010-07-06 07:41:19 51°24.313 2°53.443 355.5 14.3 358 18.6
2010-07-06 07:41:24 51°24.333 2°53.44 355.3 14.3 355 18.2
2010-07-06 07:41:29 51°24.352 2°53.439 355.3 14.4 357 19
2010-07-06 07:41:34 51°24.371 2°53.436 355.4 14.3 356 19.8
2010-07-06 07:41:39 51°24.391 2°53.434 355.3 14.3 356 18.4
2010-07-06 07:41:44 51°24.411 2°53.433 355.4 14.3 357 19.4
2010-07-06 07:41:49 51°24.431 2°53.43 355.1 14.2 356 19.9
2010-07-06 07:41:53 51°24.447 2°53.429 355.1 14.2 356 18
2010-07-06 07:41:59 51°24.47 2°53.426 354.9 14.2 357 19.3
2010-07-06 07:42:04 51°24.489 2°53.424 355.2 14.2 356 20.2
2010-07-06 07:42:09 51°24.509 2°53.423 355.1 14.3 357 20.6
2010-07-06 07:42:13 51°24.525 2°53.421 355.4 14.3 357 21
2010-07-06 07:42:19 51°24.549 2°53.419 355.4 14.2 356 21.2
2010-07-06 07:42:24 51°24.569 2°53.418 355.7 14.2 356 21.1
2010-07-06 07:42:29 51°24.589 2°53.415 354.9 14.2 357 21.6
2010-07-06 07:42:34 51°24.609 2°53.414 355.7 14.3 357 21.8
2010-07-06 07:42:38 51°24.625 2°53.412 355.2 14.2 356 21.8
2010-07-06 07:42:44 51°24.648 2°53.41 355.1 14.3 357 21.3
2010-07-06 07:42:48 51°24.664 2°53.408 355 14.2 356 20.1
2010-07-06 07:42:54 51°24.687 2°53.405 355 14.3 356 19.7
2010-07-06 07:42:59 51°24.707 2°53.403 355 14.3 356 20.2
2010-07-06 07:43:04 51°24.727 2°53.401 355.3 14.3 357 20.2
2010-07-06 07:43:09 51°24.747 2°53.4 355.5 14.4 357 19.2
2010-07-06 07:43:14 51°24.767 2°53.398 355.7 14.4 357 19.4
2010-07-06 07:43:19 51°24.787 2°53.395 355.6 14.4 356 20
2010-07-06 07:43:24 51°24.807 2°53.393 355.5 14.4 357 20.7
2010-07-06 07:43:29 51°24.826 2°53.391 355.5 14.4 356 21.2
2010-07-06 07:43:34 51°24.846 2°53.388 355.2 14.3 356 21.3
2010-07-06 07:43:39 51°24.866 2°53.386 355 14.4 356 21.3
2010-07-06 07:43:44 51°24.886 2°53.384 355 14.4 355 20.7
2010-07-06 07:43:49 51°24.906 2°53.382 355 14.4 356 20.3
2010-07-06 07:43:54 51°24.927 2°53.378 355.2 14.4 355 18.4
2010-07-06 07:43:59 51°24.947 2°53.377 355.2 14.4 357 19.1
2010-07-06 07:44:03 51°24.963 2°53.374 355.2 14.4 354 20
2010-07-06 07:44:09 51°24.987 2°53.373 355.7 14.5 358 21.1
2010-07-06 07:44:14 51°25.007 2°53.37 355.9 14.4 355 21.6
2010-07-06 07:44:19 51°25.027 2°53.369 355.3 14.5 357 22.2
2010-07-06 07:44:24 51°25.047 2°53.366 355.6 14.5 355 22
2010-07-06 07:44:29 51°25.068 2°53.364 355.3 14.5 356 22.8
2010-07-06 07:44:34 51°25.087 2°53.362 355.4 14.4 356 22.9
2010-07-06 07:44:39 51°25.107 2°53.36 355.4 14.5 356 23.3
2010-07-06 07:44:44 51°25.127 2°53.358 355.1 14.5 356 23.3
2010-07-06 07:44:49 51°25.147 2°53.355 354.8 14.4 355 23.7
2010-07-06 07:44:54 51°25.167 2°53.353 355 14.4 356 23.7
2010-07-06 07:44:59 51°25.187 2°53.35 355.1 14.4 355 23.7
2010-07-06 07:45:03 51°25.203 2°53.348 355 14.4 356 24
2010-07-06 07:45:09 51°25.227 2°53.345 355 14.3 354 24
2010-07-06 07:45:14 51°25.246 2°53.343 354.9 14.3 356 24
2010-07-06 07:45:19 51°25.266 2°53.339 355.3 14.4 355 23.6
2010-07-06 07:45:23 51°25.282 2°53.338 355.3 14.4 355 23.5
2010-07-06 07:45:28 51°25.302 2°53.334 355 14.3 355 23.5
2010-07-06 07:45:34 51°25.326 2°53.331 355.2 14.3 355 23.7
2010-07-06 07:45:39 51°25.345 2°53.329 355.1 14.3 356 24.1
2010-07-06 07:45:43 51°25.361 2°53.328 356.1 14.3 356 24.4
2010-07-06 07:45:48 51°25.381 2°53.325 355.2 14.2 355 24.4
2010-07-06 07:45:53 51°25.4 2°53.324 355.8 14.2 357 24.6
2010-07-06 07:45:59 51°25.424 2°53.319 355.2 14.1 354 24.8
2010-07-06 07:46:03 51°25.439 2°53.318 355.2 14.1 356 24.9
2010-07-06 07:46:08 51°25.459 2°53.315 355.5 14.2 355 25.4
2010-07-06 07:46:13 51°25.478 2°53.313 355.4 14.1 356 25.4
2010-07-06 07:46:18 51°25.498 2°53.311 355.5 14.1 355 25.8
2010-07-06 07:46:23 51°25.517 2°53.308 355.1 14.1 355 25.7
2010-07-06 07:46:28 51°25.537 2°53.305 355.1 14 355 25.3
2010-07-06 07:46:33 51°25.556 2°53.302 355 14.1 356 25.4
2010-07-06 07:46:38 51°25.576 2°53.3 355.5 14.1 355 25.6
2010-07-06 07:46:43 51°25.595 2°53.298 355.2 14.1 356 26
2010-07-06 07:46:48 51°25.616 2°53.296 355.6 14.1 356 26.2
2010-07-06 07:46:53 51°25.636 2°53.291 355.5 14.2 355 26.3
2010-07-06 07:46:58 51°25.655 2°53.288 355.7 14.2 356 26.3
2010-07-06 07:47:03 51°25.674 2°53.287 355.7 14.2 355 26.5
2010-07-06 07:47:08 51°25.693 2°53.284 355.2 14.2 356 26.9
2010-07-06 07:47:14 51°25.716 2°53.281 355.7 14.1 355 27.3
2010-07-06 07:47:19 51°25.736 2°53.279 355.1 14.2 356 27.8
2010-07-06 07:47:23 51°25.752 2°53.278 355.7 14.2 355 28
2010-07-06 07:47:28 51°25.771 2°53.276 355.4 14.2 357 28.1
2010-07-06 07:47:34 51°25.794 2°53.273 355.4 14.1 355 27.8
2010-07-06 07:47:39 51°25.814 2°53.271 355.3 14.1 356 27.8
2010-07-06 07:47:43 51°25.829 2°53.268 355.1 14.1 355 28.1
2010-07-06 07:47:48 51°25.849 2°53.266 355.1 14.2 356 28.8
2010-07-06 07:47:53 51°25.869 2°53.264 355.2 14.2 355 29.1
2010-07-06 07:47:59 51°25.892 2°53.261 355.3 14.2 356 29.5
2010-07-06 07:48:03 51°25.908 2°53.259 355.6 14.2 355 29.7
2010-07-06 07:48:08 51°25.927 2°53.257 355.3 14.2 356 30
2010-07-06 07:48:13 51°25.947 2°53.254 355 14.2 355 30.3
2010-07-06 07:48:19 51°25.97 2°53.251 355.2 14.1 355 30.8
2010-07-06 07:48:23 51°25.986 2°53.249 355 14.2 356 31
2010-07-06 07:48:28 51°26.006 2°53.247 355.2 14.2 355 31.1
2010-07-06 07:48:33 51°26.025 2°53.244 355 14.2 356 31.5
2010-07-06 07:48:38 51°26.045 2°53.241 355.1 14.2 355 31.7
2010-07-06 07:48:43 51°26.065 2°53.239 355.5 14.3 356 31.6
2010-07-06 07:48:48 51°26.084 2°53.236 355.5 14.2 356 31.8
2010-07-06 07:48:53 51°26.104 2°53.235 356 14.2 357 32.1
2010-07-06 07:48:58 51°26.124 2°53.232 355.8 14.2 355 31.8
2010-07-06 07:49:03 51°26.143 2°53.231 356 14.2 357 31.5
2010-07-06 07:49:08 51°26.163 2°53.228 355.6 14.1 354 31
2010-07-06 07:49:14 51°26.186 2°53.226 355.8 14.2 357 31.4
2010-07-06 07:49:19 51°26.206 2°53.221 355.4 14.1 353 31.9
2010-07-06 07:49:23 51°26.221 2°53.22 354.9 14.1 356 32.3
2010-07-06 07:49:28 51°26.241 2°53.216 355 14.2 353 32.6
2010-07-06 07:49:34 51°26.264 2°53.213 354.7 14.2 355 32.8
2010-07-06 07:49:39 51°26.283 2°53.209 355 14.1 354 32.6
2010-07-06 07:49:43 51°26.299 2°53.207 355.3 14.1 354 32.5
2010-07-06 07:49:48 51°26.319 2°53.204 354.8 14.1 354 32.3
2010-07-06 07:49:54 51°26.342 2°53.2 355.1 14.1 354 32
2010-07-06 07:49:59 51°26.361 2°53.198 354.7 14.1 354 31.8
2010-07-06 07:50:03 51°26.377 2°53.196 355.4 14.2 354 31.4
2010-07-06 07:50:08 51°26.397 2°53.193 355 14.1 355 31.2
2010-07-06 07:50:14 51°26.42 2°53.19 355.3 14.1 355 30.9
2010-07-06 07:50:19 51°26.439 2°53.186 355.4 14.1 354 31.2
2010-07-06 07:50:23 51°26.455 2°53.185 355.5 14.2 355 31.5
2010-07-06 07:50:28 51°26.474 2°53.181 355.4 14.2 354 31.9
2010-07-06 07:50:34 51°26.497 2°53.179 355.4 14.2 355 31.9
2010-07-06 07:50:39 51°26.517 2°53.176 355.5 14 355 32
2010-07-06 07:50:43 51°26.532 2°53.174 355.4 14.1 355 32.1
2010-07-06 07:50:48 51°26.552 2°53.171 355.6 14.2 355 31.9
2010-07-06 07:50:54 51°26.575 2°53.168 355.8 14.1 355 31.9
2010-07-06 07:50:59 51°26.594 2°53.164 355.6 14.1 355 31.9
2010-07-06 07:51:03 51°26.61 2°53.162 355.6 14.1 355 32.3
2010-07-06 07:51:08 51°26.63 2°53.159 355.6 14.1 354 32.2
2010-07-06 07:51:14 51°26.653 2°53.156 355.1 14 355 32.1
2010-07-06 07:51:19 51°26.673 2°53.152 355.2 14 353 32.2
2010-07-06 07:51:23 51°26.688 2°53.15 354.9 14 355 31.8
2010-07-06 07:51:28 51°26.707 2°53.146 355.1 14.1 354 31.6
2010-07-06 07:51:34 51°26.731 2°53.142 355 14.2 353 31.5
2010-07-06 07:51:39 51°26.75 2°53.139 355.1 14.1 354 30.8
2010-07-06 07:51:43 51°26.765 2°53.136 355.1 14.1 354 30.6
2010-07-06 07:51:49 51°26.789 2°53.132 355 14.1 354 30.5
2010-07-06 07:51:54 51°26.808 2°53.129 355.2 14.1 354 30.6
2010-07-06 07:51:59 51°26.828 2°53.125 355 14.1 354 30.2
2010-07-06 07:52:03 51°26.843 2°53.123 355.3 14.1 354 30.6
2010-07-06 07:52:08 51°26.863 2°53.12 355.7 14.1 355 30.4
2010-07-06 07:52:14 51°26.886 2°53.116 355.7 14.1 354 30.5
2010-07-06 07:52:19 51°26.906 2°53.113 355.7 14.2 355 30.7
2010-07-06 07:52:23 51°26.922 2°53.11 355.8 14.1 354 30.8
2010-07-06 07:52:28 51°26.941 2°53.108 355.6 14.1 354 30.5
2010-07-06 07:52:34 51°26.964 2°53.103 355.3 14.1 354 30.2
2010-07-06 07:52:39 51°26.984 2°53.1 355.8 14.1 354 30
2010-07-06 07:52:43 51°27 2°53.097 355.1 14.1 354 29.9
2010-07-06 07:52:48 51°27.019 2°53.094 355 14.2 355 29.1
2010-07-06 07:52:53 51°27.039 2°53.091 355.3 14.2 353 28.4
2010-07-06 07:52:59 51°27.063 2°53.087 355.1 14.2 354 29.7
2010-07-06 07:53:03 51°27.078 2°53.085 355.6 14.2 354 29.5
2010-07-06 07:53:08 51°27.098 2°53.081 355.6 14.2 355 28.2
2010-07-06 07:53:13 51°27.117 2°53.078 355.3 14.1 354 26.3
2010-07-06 07:53:19 51°27.141 2°53.075 355.6 14.2 355 27.8
2010-07-06 07:53:23 51°27.156 2°53.072 355.2 14.2 354 29.1
2010-07-06 07:53:28 51°27.176 2°53.069 355.4 14.2 354 28.9
2010-07-06 07:53:34 51°27.2 2°53.064 355.2 14.3 354 27.7
2010-07-06 07:53:39 51°27.219 2°53.061 354.9 14.2 354 26.2
2010-07-06 07:53:43 51°27.235 2°53.058 355.2 14.1 354 25.2
2010-07-06 07:53:48 51°27.254 2°53.055 355.1 14.2 355 26.7
2010-07-06 07:53:54 51°27.278 2°53.052 355.1 14.2 355 24
2010-07-06 07:53:59 51°27.298 2°53.049 355.2 14.3 355 25
2010-07-06 07:54:03 51°27.314 2°53.047 355.2 14.3 355 25.1
2010-07-06 07:54:08 51°27.333 2°53.044 355.1 14.2 355 24.7
2010-07-06 07:54:14 51°27.357 2°53.04 355 14.2 354 24.1
2010-07-06 07:54:19 51°27.377 2°53.037 355 14.2 355 23.1
2010-07-06 07:54:23 51°27.393 2°53.035 355.5 14.2 355 22.1
2010-07-06 07:54:28 51°27.413 2°53.033 355.5 14.3 355 23.3
2010-07-06 07:54:34 51°27.436 2°53.029 355.3 14.3 355 22.7
2010-07-06 07:54:39 51°27.456 2°53.028 355.6 14.3 355 21.4
2010-07-06 07:54:43 51°27.471 2°53.025 355 14.2 355 22
2010-07-06 07:54:48 51°27.49 2°53.023 355.7 14.2 356 23
2010-07-06 07:54:54 51°27.514 2°53.02 355.4 14.2 355 23.2
2010-07-06 07:54:59 51°27.534 2°53.017 355.5 14.2 356 22.4
2010-07-06 07:55:03 51°27.55 2°53.015 355.5 14.3 355 20.7
2010-07-06 07:55:08 51°27.57 2°53.012 355.2 14.2 356 21.3
2010-07-06 07:55:14 51°27.593 2°53.009 355.4 14.2 355 21.6
2010-07-06 07:55:19 51°27.613 2°53.006 355 14.2 355 21.6
2010-07-06 07:55:23 51°27.628 2°53.004 355.4 14.2 356 22.3
2010-07-06 07:55:28 51°27.648 2°52.999 355.2 14.2 355 22.4
2010-07-06 07:55:34 51°27.671 2°52.996 355.4 14.2 355 22.1
2010-07-06 07:55:39 51°27.691 2°52.993 354.7 14.2 354 22.4
2010-07-06 07:55:43 51°27.707 2°52.992 355.5 14.4 356 22.6
2010-07-06 07:55:48 51°27.727 2°52.988 355.3 14.3 354 20.8
2010-07-06 07:55:54 51°27.75 2°52.986 355.2 14.3 356 21.8
2010-07-06 07:55:59 51°27.77 2°52.982 355.1 14.3 354 22.5
2010-07-06 07:56:03 51°27.786 2°52.98 355 14.3 356 22.8
2010-07-06 07:56:08 51°27.806 2°52.977 355.5 14.4 355 23.2
2010-07-06 07:56:14 51°27.829 2°52.974 355 14.4 356 21.3
2010-07-06 07:56:19 51°27.849 2°52.972 355.5 14.3 356 22.1
2010-07-06 07:56:23 51°27.865 2°52.97 355.2 14.2 355 22.4
2010-07-06 07:56:28 51°27.885 2°52.968 355.5 14.3 356 23.3
2010-07-06 07:56:34 51°27.908 2°52.965 355.2 14.4 355 23.3
2010-07-06 07:56:39 51°27.928 2°52.962 354.8 14.3 355 23.4
2010-07-06 07:56:43 51°27.943 2°52.96 354.9 14.2 355 23.5
2010-07-06 07:56:48 51°27.963 2°52.958 355.5 14.2 356 24.1
2010-07-06 07:56:54 51°27.987 2°52.954 355.1 14.3 355 22.5
2010-07-06 07:56:59 51°28.006 2°52.953 355.2 14.3 356 23.1
2010-07-06 07:57:03 51°28.022 2°52.95 355.2 14.3 355 23.3
2010-07-06 07:57:08 51°28.042 2°52.948 355 14.4 356 23.7
2010-07-06 07:57:14 51°28.066 2°52.945 355.2 14.4 355 23.6
2010-07-06 07:57:19 51°28.086 2°52.943 355 14.4 356 23.7
2010-07-06 07:57:23 51°28.102 2°52.941 355.4 14.4 356 22.9
2010-07-06 07:57:27 51°28.118 2°52.939 355 14.4 355 23.7
2010-07-06 07:57:34 51°28.146 2°52.935 354.9 14.4 355 24.3
2010-07-06 07:57:39 51°28.167 2°52.932 355 14.5 355 23.9
2010-07-06 07:57:43 51°28.182 2°52.931 355.2 14.5 356 22.9
2010-07-06 07:57:48 51°28.202 2°52.928 354.9 14.4 355 23.3
2010-07-06 07:57:54 51°28.226 2°52.925 355.5 14.4 356 23.6
2010-07-06 07:57:59 51°28.247 2°52.921 355.1 14.4 355 24
2010-07-06 07:58:03 51°28.263 2°52.919 355 14.4 356 23.8
2010-07-06 07:58:08 51°28.283 2°52.916 354.9 14.3 355 24.1
2010-07-06 07:58:14 51°28.307 2°52.914 355.1 14.4 356 24.1
2010-07-06 07:58:19 51°28.327 2°52.911 355.2 14.4 355 24.2
2010-07-06 07:58:23 51°28.343 2°52.91 355.3 14.4 356 24.6
2010-07-06 07:58:28 51°28.363 2°52.908 355.5 14.3 356 24.7
2010-07-06 07:58:34 51°28.386 2°52.905 355.1 14.4 356 25.1
2010-07-06 07:58:39 51°28.406 2°52.902 355.3 14.4 356 25.4
2010-07-06 07:58:43 51°28.422 2°52.899 355.1 14.4 356 25.4
2010-07-06 07:58:48 51°28.442 2°52.897 355 14.4 356 25.4
2010-07-06 07:58:54 51°28.466 2°52.893 354.9 14.4 355 25.7
2010-07-06 07:58:59 51°28.486 2°52.892 355.5 14.3 356 25.7
2010-07-06 07:59:03 51°28.502 2°52.889 355.3 14.4 356 25.9
2010-07-06 07:59:08 51°28.522 2°52.887 355.5 14.3 355 25.9
2010-07-06 07:59:14 51°28.546 2°52.884 355.2 14.4 357 26.2
2010-07-06 07:59:19 51°28.566 2°52.882 355.3 14.3 355 26.2
2010-07-06 07:59:23 51°28.582 2°52.881 355.2 14.3 357 26.4
2010-07-06 07:59:28 51°28.602 2°52.878 355.6 14.3 356 26.5
2010-07-06 07:59:34 51°28.626 2°52.875 355.2 14.3 355 26.4
2010-07-06 07:59:39 51°28.645 2°52.872 355 14.3 356 26.7
2010-07-06 07:59:43 51°28.661 2°52.87 355 14.3 355 26.7
2010-07-06 07:59:48 51°28.68 2°52.868 354.8 14.2 356 26.8
2010-07-06 07:59:54 51°28.703 2°52.864 355 14.3 355 26.7
2010-07-06 07:59:58 51°28.719 2°52.863 355.2 14.4 356 27.2
2010-07-06 08:00:04 51°28.743 2°52.86 354.8 14.4 355 27.2
2010-07-06 08:00:08 51°28.759 2°52.858 355 14.4 356 27.2
2010-07-06 08:00:14 51°28.782 2°52.854 355.1 14.3 356 27.3
2010-07-06 08:00:18 51°28.798 2°52.853 355.2 14.3 356 27.4
2010-07-06 08:00:23 51°28.818 2°52.85 355.4 14.3 356 27.4
2010-07-06 08:00:28 51°28.838 2°52.847 355.1 14.4 355 27.1
2010-07-06 08:00:33 51°28.858 2°52.845 355.1 14.4 356 27.4
2010-07-06 08:00:38 51°28.878 2°52.842 354.9 14.3 355 27.5
2010-07-06 08:00:43 51°28.897 2°52.839 355.1 14.4 356 27.7
2010-07-06 08:00:48 51°28.917 2°52.836 355.2 14.4 355 27.8
2010-07-06 08:00:54 51°28.941 2°52.834 355.2 14.5 356 27.8
2010-07-06 08:00:59 51°28.961 2°52.832 355.7 14.5 356 27.8
2010-07-06 08:01:03 51°28.977 2°52.83 355.4 14.5 355 28.1
2010-07-06 08:01:08 51°28.997 2°52.827 355.4 14.4 356 28.2
2010-07-06 08:01:14 51°29.021 2°52.824 355.4 14.2 356 28.4
2010-07-06 08:01:19 51°29.04 2°52.822 355.6 14.2 357 28.2
2010-07-06 08:01:23 51°29.056 2°52.821 355.6 14.1 356 28
2010-07-06 08:01:28 51°29.076 2°52.819 355.6 14.1 357 28.2
2010-07-06 08:01:33 51°29.095 2°52.816 355.5 13.9 356 28.6
2010-07-06 08:01:39 51°29.119 2°52.813 355.3 14 357 28.8
2010-07-06 08:01:43 51°29.134 2°52.811 354.8 13.8 355 28.9
2010-07-06 08:01:48 51°29.155 2°52.808 355.2 14 357 28.7
2010-07-06 08:01:54 51°29.18 2°52.804 354.8 14.2 355 28.8
2010-07-06 08:01:59 51°29.2 2°52.802 355 14.4 356 28.6
2010-07-06 08:02:03 51°29.216 2°52.799 355 14.3 355 28.9
2010-07-06 08:02:08 51°29.236 2°52.797 355.3 14.4 356 28.9
2010-07-06 08:02:14 51°29.26 2°52.794 355.1 14.3 355 29.3
2010-07-06 08:02:19 51°29.279 2°52.794 355.2 14.3 356 29.7
2010-07-06 08:02:23 51°29.295 2°52.791 354.7 14.2 355 30.2
2010-07-06 08:02:28 51°29.315 2°52.793 357.5 14.3 1 30.5
2010-07-06 08:02:34 51°29.339 2°52.791 357.7 14.2 358 30.6
2010-07-06 08:02:39 51°29.358 2°52.791 359.4 14.2 1 30.6
2010-07-06 08:02:43 51°29.374 2°52.792 1.7 14.2 4 30.2
2010-07-06 08:02:48 51°29.393 2°52.794 2.2 14.2 3 30.3
2010-07-06 08:02:54 51°29.417 2°52.796 3.7 14.2 5 31.1
2010-07-06 08:02:59 51°29.436 2°52.798 4.3 14.3 5 31.4
2010-07-06 08:03:03 51°29.452 2°52.8 4.5 14.2 5 31.8
2010-07-06 08:03:09 51°29.476 2°52.803 5.3 14.2 5 31.8
2010-07-06 08:03:14 51°29.496 2°52.806 5.7 14.2 6 31.7
2010-07-06 08:03:19 51°29.515 2°52.81 5.9 14.3 7 31.7
2010-07-06 08:03:23 51°29.531 2°52.813 6.1 14.1 5 31.7
2010-07-06 08:03:28 51°29.551 2°52.816 6.4 14.3 6 31.9
2010-07-06 08:03:34 51°29.574 2°52.82 5.9 14.1 5 32.2
2010-07-06 08:03:39 51°29.594 2°52.823 4.4 14.2 5 32.1
2010-07-06 08:03:43 51°29.609 2°52.824 3.8 14.1 4 32.3
2010-07-06 08:03:48 51°29.629 2°52.826 3.3 14.2 4 32.6
2010-07-06 08:03:53 51°29.648 2°52.829 2.3 14.2 2 32.7
2010-07-06 08:03:59 51°29.671 2°52.83 2.1 14.2 2 32.5
2010-07-06 08:04:03 51°29.687 2°52.832 1.6 14.2 2 33
2010-07-06 08:04:08 51°29.707 2°52.831 0.8 14.3 1 33
2010-07-06 08:04:14 51°29.729 2°52.833 1.4 14.2 2 32.9
2010-07-06 08:04:19 51°29.748 2°52.833 1 14.1 1 32.6
2010-07-06 08:04:23 51°29.764 2°52.834 0.8 14.1 1 32.1
2010-07-06 08:04:28 51°29.784 2°52.835 0.6 14.1 1 32.4
2010-07-06 08:04:34 51°29.807 2°52.835 0.8 14.1 1 32
2010-07-06 08:04:39 51°29.827 2°52.835 0.3 14.1 -999 31.9
2010-07-06 08:04:43 51°29.843 2°52.836 0.1 14.2 1 32.2
2010-07-06 08:04:48 51°29.862 2°52.836 0.2 14.2 -999 31.6
2010-07-06 08:04:54 51°29.886 2°52.837 0.4 14.2 1 31.9
2010-07-06 08:04:59 51°29.905 2°52.836 0.2 14.2 -999 31.7
2010-07-06 08:05:03 51°29.921 2°52.837 0.4 14.2 1 31.1
2010-07-06 08:05:08 51°29.941 2°52.837 0.6 14.2 1 31
2010-07-06 08:05:14 51°29.966 2°52.839 0.3 14.3 2 30.4
2010-07-06 08:05:19 51°29.986 2°52.839 0.4 14.3 -999 30.4
2010-07-06 08:05:23 51°30.002 2°52.84 0.1 14.3 1 30.2
2010-07-06 08:05:28 51°30.022 2°52.841 0.6 14.3 1 30.5
2010-07-06 08:05:34 51°30.046 2°52.842 0.7 14.4 2 30.6
2010-07-06 08:05:39 51°30.066 2°52.843 0.1 14.4 1 30.7
2010-07-06 08:05:43 51°30.082 2°52.843 0.4 14.3 2 30.8
2010-07-06 08:05:48 51°30.102 2°52.844 0.7 14.3 1 30.9
2010-07-06 08:05:54 51°30.126 2°52.845 0.3 14.4 2 31.6
2010-07-06 08:05:59 51°30.145 2°52.845 0.4 14.3 1 31.2
2010-07-06 08:06:03 51°30.161 2°52.846 0.4 14.4 2 31.5
2010-07-06 08:06:08 51°30.181 2°52.847 0.3 14.4 1 31.6
2010-07-06 08:06:14 51°30.205 2°52.848 0.3 14.4 1 31.9
2010-07-06 08:06:19 51°30.225 2°52.849 0.7 14.4 2 31.7
2010-07-06 08:06:23 51°30.241 2°52.848 0.1 14.3 1 31.8
2010-07-06 08:06:28 51°30.26 2°52.849 0.1 14.4 2 31.3
2010-07-06 08:06:33 51°30.279 2°52.851 0.1 14.2 1 31
2010-07-06 08:06:38 51°30.298 2°52.853 0.4 14.2 2 30
2010-07-06 08:06:43 51°30.318 2°52.853 0.6 14.1 1 30.8
2010-07-06 08:06:48 51°30.335 2°52.857 0.4 14.2 2 30.4
2010-07-06 08:06:54 51°30.356 2°52.861 0.6 14.1 2 30.3
2010-07-06 08:06:58 51°30.373 2°52.861 0.4 14 2 30
2010-07-06 08:07:03 51°30.394 2°52.861 0.5 14 3 29.7
2010-07-06 08:07:08 51°30.41 2°52.866 0.6 13.9 2 29.5
2010-07-06 08:07:13 51°30.426 2°52.871 0.4 13.9 3 29
2010-07-06 08:07:19 51°30.461 2°52.861 0.3 13.9 2 29.3
2010-07-06 08:07:23 51°30.48 2°52.86 0.4 14.4 2 28.3
2010-07-06 08:07:28 51°30.5 2°52.86 0.4 14.5 1 27.8
2010-07-06 08:07:34 51°30.525 2°52.861 0.3 14.5 2 27.5
2010-07-06 08:07:39 51°30.545 2°52.862 0.2 14.5 2 27.8
2010-07-06 08:07:43 51°30.561 2°52.862 0.6 14.5 2 27.4
2010-07-06 08:07:48 51°30.581 2°52.863 0.7 14.5 1 26.1
2010-07-06 08:07:54 51°30.605 2°52.864 0.3 14.5 2 24.1
2010-07-06 08:07:59 51°30.625 2°52.865 0.3 14.5 1 25.8
2010-07-06 08:08:03 51°30.641 2°52.866 0.3 14.5 2 25.9